createdAt,value
2023-03-08T00:00:36.470Z,0.00
2023-03-08T00:01:36.420Z,0.00
2023-03-08T00:03:53.023Z,0.00
2023-03-08T00:04:53.015Z,0.00
2023-03-08T00:05:52.967Z,0.00
2023-03-08T00:06:52.951Z,0.00
2023-03-08T00:07:52.954Z,0.00
2023-03-08T00:08:52.949Z,0.00
2023-03-08T00:09:52.933Z,0.00
2023-03-08T00:10:52.903Z,0.00
2023-03-08T00:11:52.900Z,0.00
2023-03-08T00:12:52.895Z,0.00
2023-03-08T00:13:52.883Z,0.00
2023-03-08T00:14:52.870Z,0.00
2023-03-08T00:15:52.894Z,0.00
2023-03-08T00:16:52.847Z,0.00
2023-03-08T00:17:52.853Z,0.00
2023-03-08T00:18:52.823Z,0.00
2023-03-08T00:19:52.817Z,0.00
2023-03-08T00:20:52.818Z,0.00
2023-03-08T00:21:52.806Z,0.00
2023-03-08T00:22:52.804Z,0.00
2023-03-08T00:23:52.773Z,0.00
2023-03-08T00:24:52.760Z,0.00
2023-03-08T00:25:52.748Z,0.00
2023-03-08T00:26:52.741Z,0.00
2023-03-08T00:27:52.742Z,0.00
2023-03-08T00:28:52.818Z,0.00
2023-03-08T00:29:52.721Z,0.00
2023-03-08T00:30:52.699Z,0.00
2023-03-08T00:31:52.703Z,0.00
2023-03-08T00:32:52.696Z,0.00
2023-03-08T00:33:52.688Z,0.00
2023-03-08T00:34:52.668Z,0.00
2023-03-08T00:35:52.733Z,0.00
2023-03-08T00:36:52.658Z,0.00
2023-03-08T00:37:52.643Z,0.00
2023-03-08T00:38:52.677Z,0.00
2023-03-08T00:39:52.615Z,0.00
2023-03-08T00:40:52.602Z,0.00
2023-03-08T00:41:52.593Z,0.00
2023-03-08T00:42:52.588Z,0.00
2023-03-08T00:43:52.581Z,0.00
2023-03-08T00:44:52.560Z,0.00
2023-03-08T00:45:53.287Z,0.00
2023-03-08T00:46:52.562Z,0.00
2023-03-08T00:47:52.539Z,0.00
2023-03-08T00:48:52.521Z,0.00
2023-03-08T00:49:52.507Z,0.00
2023-03-08T00:50:52.499Z,0.00
2023-03-08T00:51:52.489Z,0.00
2023-03-08T00:52:52.495Z,0.00
2023-03-08T00:53:52.474Z,0.00
2023-03-08T00:54:52.454Z,0.00
2023-03-08T00:55:52.460Z,0.00
2023-03-08T00:56:52.432Z,0.00
2023-03-08T00:57:52.441Z,0.00
2023-03-08T00:58:52.414Z,0.00
2023-03-08T00:59:52.411Z,0.00
2023-03-08T01:00:52.456Z,0.00
2023-03-08T01:01:52.377Z,0.00
2023-03-08T01:02:52.399Z,0.00
2023-03-08T01:03:52.418Z,0.00
2023-03-08T01:04:52.350Z,0.00
2023-03-08T01:05:52.348Z,0.00
2023-03-08T01:06:52.329Z,0.00
2023-03-08T01:07:52.315Z,0.00
2023-03-08T01:08:52.319Z,0.00
2023-03-08T01:09:52.316Z,0.00
2023-03-08T01:10:52.289Z,0.00
2023-03-08T01:11:52.270Z,0.00
2023-03-08T01:12:52.261Z,0.00
2023-03-08T01:13:52.263Z,0.00
2023-03-08T01:14:52.241Z,0.00
2023-03-08T01:15:52.229Z,0.00
2023-03-08T01:16:52.221Z,0.00
2023-03-08T01:17:52.214Z,0.00
2023-03-08T01:18:52.224Z,0.00
2023-03-08T01:19:52.191Z,0.00
2023-03-08T01:20:52.181Z,0.00
2023-03-08T01:21:52.174Z,0.00
2023-03-08T01:22:52.161Z,0.00
2023-03-08T01:23:52.207Z,0.00
2023-03-08T01:24:52.138Z,0.00
2023-03-08T01:25:52.124Z,0.00
2023-03-08T01:26:52.121Z,0.00
2023-03-08T01:27:52.105Z,0.00
2023-03-08T01:28:52.119Z,0.00
2023-03-08T01:29:52.093Z,0.00
2023-03-08T01:30:52.073Z,0.00
2023-03-08T01:31:52.062Z,0.00
2023-03-08T01:32:52.053Z,0.00
2023-03-08T01:33:52.064Z,0.00
2023-03-08T01:34:52.038Z,0.00
2023-03-08T01:35:52.029Z,0.00
2023-03-08T01:36:52.014Z,0.00
2023-03-08T01:37:52.003Z,0.00
2023-03-08T01:38:52.017Z,0.00
2023-03-08T01:39:51.979Z,0.00
2023-03-08T01:40:51.965Z,0.00
2023-03-08T01:41:51.956Z,0.00
2023-03-08T01:42:51.945Z,0.00
2023-03-08T01:43:51.950Z,0.00
2023-03-08T01:44:51.934Z,0.00
2023-03-08T01:45:51.915Z,0.00
2023-03-08T01:46:51.906Z,0.00
2023-03-08T01:47:51.889Z,0.00
2023-03-08T01:48:51.888Z,0.00
2023-03-08T01:49:51.903Z,0.00
2023-03-08T01:50:51.857Z,0.00
2023-03-08T01:51:51.844Z,0.00
2023-03-08T01:52:51.837Z,0.00
2023-03-08T01:53:51.833Z,0.00
2023-03-08T01:54:51.817Z,0.00
2023-03-08T01:55:51.806Z,0.00
2023-03-08T01:56:51.801Z,0.00
2023-03-08T01:57:51.791Z,0.00
2023-03-08T01:58:51.785Z,0.00
2023-03-08T01:59:51.758Z,0.00
2023-03-08T02:00:51.780Z,0.00
2023-03-08T02:01:51.744Z,0.00
2023-03-08T02:02:51.737Z,0.00
2023-03-08T02:03:51.725Z,0.00
2023-03-08T02:04:51.707Z,0.00
2023-03-08T02:05:51.794Z,0.00
2023-03-08T02:06:51.697Z,0.00
2023-03-08T02:07:51.687Z,0.00
2023-03-08T02:08:51.711Z,0.00
2023-03-08T02:09:51.661Z,0.00
2023-03-08T02:10:51.653Z,0.00
2023-03-08T02:11:51.645Z,0.00
2023-03-08T02:12:51.641Z,0.00
2023-03-08T02:13:51.672Z,0.00
2023-03-08T02:14:51.621Z,0.00
2023-03-08T02:15:51.605Z,0.00
2023-03-08T02:16:51.598Z,0.00
2023-03-08T02:17:51.587Z,0.00
2023-03-08T02:18:51.578Z,0.00
2023-03-08T02:19:51.578Z,0.00
2023-03-08T02:20:51.556Z,0.00
2023-03-08T02:21:51.567Z,0.00
2023-03-08T02:22:51.537Z,0.00
2023-03-08T02:23:51.533Z,0.00
2023-03-08T02:24:51.510Z,0.00
2023-03-08T02:25:51.505Z,0.00
2023-03-08T02:26:51.488Z,0.00
2023-03-08T02:27:51.493Z,0.00
2023-03-08T02:28:51.491Z,0.00
2023-03-08T02:29:51.483Z,0.00
2023-03-08T02:30:51.474Z,0.00
2023-03-08T02:31:51.440Z,0.00
2023-03-08T02:32:51.448Z,0.00
2023-03-08T02:33:51.436Z,0.00
2023-03-08T02:34:51.435Z,0.00
2023-03-08T02:35:51.433Z,0.00
2023-03-08T02:36:51.393Z,0.00
2023-03-08T02:37:51.378Z,0.00
2023-03-08T02:38:51.378Z,0.00
2023-03-08T02:39:51.361Z,0.00
2023-03-08T02:40:51.357Z,0.00
2023-03-08T02:41:51.335Z,0.00
2023-03-08T02:42:53.383Z,0.00
2023-03-08T02:43:51.332Z,0.00
2023-03-08T02:44:51.300Z,0.00
2023-03-08T02:45:51.305Z,0.00
2023-03-08T02:46:51.280Z,0.00
2023-03-08T02:47:51.273Z,0.00
2023-03-08T02:48:51.268Z,0.00
2023-03-08T02:49:51.249Z,0.00
2023-03-08T02:50:51.235Z,0.00
2023-03-08T02:51:51.236Z,0.00
2023-03-08T02:52:51.224Z,0.00
2023-03-08T02:53:51.223Z,0.00
2023-03-08T02:54:51.205Z,0.00
2023-03-08T02:55:51.194Z,0.00
2023-03-08T02:56:51.181Z,0.00
2023-03-08T02:57:51.177Z,0.00
2023-03-08T02:58:51.170Z,0.00
2023-03-08T02:59:51.150Z,0.00
2023-03-08T03:00:51.141Z,0.00
2023-03-08T03:01:51.138Z,0.00
2023-03-08T03:02:51.120Z,0.00
2023-03-08T03:03:51.121Z,0.00
2023-03-08T03:04:51.098Z,0.00
2023-03-08T03:05:51.089Z,0.00
2023-03-08T03:06:51.079Z,0.00
2023-03-08T03:07:51.076Z,0.00
2023-03-08T03:08:51.072Z,0.00
2023-03-08T03:09:51.045Z,0.00
2023-03-08T03:10:51.050Z,0.00
2023-03-08T03:11:51.023Z,0.00
2023-03-08T03:12:51.026Z,0.00
2023-03-08T03:13:51.014Z,0.00
2023-03-08T03:14:51.011Z,0.00
2023-03-08T03:15:50.994Z,0.00
2023-03-08T03:16:50.970Z,0.00
2023-03-08T03:17:50.953Z,0.00
2023-03-08T03:18:50.951Z,0.00
2023-03-08T03:19:50.934Z,0.00
2023-03-08T03:20:50.924Z,0.00
2023-03-08T03:21:50.915Z,0.00
2023-03-08T03:22:50.899Z,0.00
2023-03-08T03:23:52.034Z,0.00
2023-03-08T03:24:52.044Z,0.00
2023-03-08T03:25:52.034Z,0.00
2023-03-08T03:26:51.993Z,0.00
2023-03-08T03:27:52.000Z,0.00
2023-03-08T03:28:51.983Z,0.00
2023-03-08T03:29:51.966Z,0.00
2023-03-08T03:30:52.040Z,0.00
2023-03-08T03:31:51.938Z,0.00
2023-03-08T03:32:51.928Z,0.00
2023-03-08T03:33:52.974Z,0.00
2023-03-08T03:34:51.908Z,0.00
2023-03-08T03:35:51.942Z,0.00
2023-03-08T03:36:51.882Z,0.00
2023-03-08T03:37:51.883Z,0.00
2023-03-08T03:38:51.881Z,0.00
2023-03-08T03:39:51.889Z,0.00
2023-03-08T03:40:51.856Z,0.00
2023-03-08T03:41:51.844Z,0.00
2023-03-08T03:42:51.858Z,0.00
2023-03-08T03:43:51.855Z,0.00
2023-03-08T03:44:51.815Z,0.00
2023-03-08T03:45:51.803Z,0.00
2023-03-08T03:46:51.831Z,0.00
2023-03-08T03:47:51.807Z,0.00
2023-03-08T03:48:51.791Z,0.00
2023-03-08T03:49:51.802Z,0.00
2023-03-08T03:50:51.765Z,0.00
2023-03-08T03:51:51.749Z,0.00
2023-03-08T03:52:51.744Z,0.00
2023-03-08T03:53:51.735Z,0.00
2023-03-08T03:54:52.728Z,0.00
2023-03-08T03:55:51.715Z,0.00
2023-03-08T03:56:51.712Z,0.00
2023-03-08T03:57:51.763Z,0.00
2023-03-08T03:58:51.689Z,0.00
2023-03-08T03:59:51.688Z,0.00
2023-03-08T04:00:51.663Z,0.00
2023-03-08T04:01:51.656Z,0.00
2023-03-08T04:02:51.684Z,0.00
2023-03-08T04:03:51.762Z,0.00
2023-03-08T04:04:51.666Z,0.00
2023-03-08T04:05:51.628Z,0.00
2023-03-08T04:06:51.612Z,0.00
2023-03-08T04:07:51.597Z,0.00
2023-03-08T04:08:51.597Z,0.00
2023-03-08T04:09:51.594Z,0.00
2023-03-08T04:10:51.561Z,0.00
2023-03-08T04:11:52.554Z,0.00
2023-03-08T04:12:51.568Z,0.00
2023-03-08T04:13:51.544Z,0.00
2023-03-08T04:14:51.542Z,0.00
2023-03-08T04:15:51.522Z,0.00
2023-03-08T04:16:51.526Z,0.00
2023-03-08T04:17:51.496Z,0.00
2023-03-08T04:18:51.496Z,0.00
2023-03-08T04:19:51.501Z,0.00
2023-03-08T04:20:51.474Z,0.00
2023-03-08T04:21:51.467Z,0.00
2023-03-08T04:22:51.451Z,0.00
2023-03-08T04:23:51.448Z,0.00
2023-03-08T04:24:51.457Z,0.00
2023-03-08T04:25:51.420Z,0.00
2023-03-08T04:26:51.404Z,0.00
2023-03-08T04:27:51.412Z,0.00
2023-03-08T04:28:51.399Z,0.00
2023-03-08T04:29:51.400Z,0.00
2023-03-08T04:30:51.382Z,0.00
2023-03-08T04:31:51.375Z,0.00
2023-03-08T04:32:51.375Z,0.00
2023-03-08T04:33:51.341Z,0.00
2023-03-08T04:34:51.336Z,0.00
2023-03-08T04:35:51.425Z,0.00
2023-03-08T04:36:51.310Z,0.00
2023-03-08T04:37:51.325Z,0.00
2023-03-08T04:38:51.302Z,0.00
2023-03-08T04:39:51.302Z,0.00
2023-03-08T04:40:51.289Z,0.00
2023-03-08T04:41:51.274Z,0.00
2023-03-08T04:42:51.253Z,0.00
2023-03-08T04:43:51.243Z,0.00
2023-03-08T04:44:51.244Z,0.00
2023-03-08T04:45:51.242Z,0.00
2023-03-08T04:46:51.241Z,0.00
2023-03-08T04:47:51.207Z,0.00
2023-03-08T04:48:51.205Z,0.00
2023-03-08T04:49:51.203Z,0.00
2023-03-08T04:50:51.188Z,0.00
2023-03-08T04:51:51.179Z,0.00
2023-03-08T04:52:51.503Z,0.00
2023-03-08T04:53:51.148Z,0.00
2023-03-08T04:54:51.147Z,0.00
2023-03-08T04:55:51.154Z,0.00
2023-03-08T04:56:51.114Z,0.00
2023-03-08T04:57:51.097Z,0.00
2023-03-08T04:58:51.093Z,0.00
2023-03-08T04:59:51.093Z,0.00
2023-03-08T05:00:51.070Z,0.00
2023-03-08T05:01:51.134Z,0.00
2023-03-08T05:02:51.056Z,0.00
2023-03-08T05:03:51.040Z,0.00
2023-03-08T05:04:51.114Z,0.00
2023-03-08T05:05:51.021Z,0.00
2023-03-08T05:06:51.005Z,0.00
2023-03-08T05:07:52.026Z,0.00
2023-03-08T05:08:51.005Z,0.00
2023-03-08T05:09:51.018Z,0.00
2023-03-08T05:10:50.971Z,0.00
2023-03-08T05:11:50.998Z,0.00
2023-03-08T05:12:50.960Z,0.00
2023-03-08T05:13:50.935Z,0.00
2023-03-08T05:14:50.995Z,0.00
2023-03-08T05:15:50.946Z,0.00
2023-03-08T05:16:50.924Z,0.00
2023-03-08T05:17:50.900Z,0.00
2023-03-08T05:18:50.898Z,0.00
2023-03-08T05:19:50.898Z,0.00
2023-03-08T05:20:50.885Z,0.00
2023-03-08T05:21:50.870Z,0.00
2023-03-08T05:22:58.547Z,0.00
2023-03-08T05:23:52.854Z,0.00
2023-03-08T05:24:50.864Z,0.00
2023-03-08T05:25:50.829Z,0.00
2023-03-08T05:26:50.826Z,0.00
2023-03-08T05:27:50.826Z,0.00
2023-03-08T05:28:50.806Z,4.00
2023-03-08T05:29:50.796Z,4.00
2023-03-08T05:30:50.799Z,0.00
2023-03-08T05:31:50.800Z,4.00
2023-03-08T05:32:50.755Z,0.00
2023-03-08T05:33:50.758Z,4.00
2023-03-08T05:34:50.759Z,4.00
2023-03-08T05:35:50.841Z,8.00
2023-03-08T05:36:50.730Z,4.00
2023-03-08T05:37:50.727Z,8.00
2023-03-08T05:38:50.714Z,8.00
2023-03-08T05:39:50.728Z,8.00
2023-03-08T05:40:50.682Z,16.00
2023-03-08T05:41:50.679Z,16.00
2023-03-08T05:42:50.667Z,16.00
2023-03-08T05:43:50.657Z,20.00
2023-03-08T05:44:50.711Z,24.00
2023-03-08T05:45:50.681Z,32.00
2023-03-08T05:46:50.634Z,32.00
2023-03-08T05:47:50.622Z,36.00
2023-03-08T05:48:50.600Z,40.00
2023-03-08T05:49:50.609Z,36.00
2023-03-08T05:50:50.581Z,40.00
2023-03-08T05:51:50.567Z,44.00
2023-03-08T05:52:50.571Z,52.00
2023-03-08T05:53:50.549Z,52.00
2023-03-08T05:54:50.573Z,60.00
2023-03-08T05:55:50.523Z,72.00
2023-03-08T05:56:50.557Z,76.00
2023-03-08T05:57:50.531Z,84.00
2023-03-08T05:58:50.518Z,92.00
2023-03-08T05:59:50.525Z,104.00
2023-03-08T06:00:50.489Z,112.00
2023-03-08T06:01:50.521Z,120.00
2023-03-08T06:02:50.522Z,132.00
2023-03-08T06:03:50.475Z,140.00
2023-03-08T06:04:50.488Z,152.00
2023-03-08T06:05:51.441Z,164.00
2023-03-08T06:06:50.443Z,180.00
2023-03-08T06:07:50.431Z,196.00
2023-03-08T06:08:50.422Z,212.00
2023-03-08T06:09:50.417Z,228.00
2023-03-08T06:10:50.398Z,244.00
2023-03-08T06:11:50.399Z,264.00
2023-03-08T06:12:50.357Z,288.00
2023-03-08T06:13:50.387Z,320.00
2023-03-08T06:14:50.366Z,360.00
2023-03-08T06:15:50.344Z,400.00
2023-03-08T06:16:50.370Z,444.00
2023-03-08T06:17:50.323Z,484.00
2023-03-08T06:18:50.318Z,524.00
2023-03-08T06:19:50.353Z,568.00
2023-03-08T06:20:50.319Z,596.00
2023-03-08T06:21:58.172Z,620.00
2023-03-08T06:22:51.262Z,636.00
2023-03-08T06:23:51.251Z,648.00
2023-03-08T06:24:50.270Z,656.00
2023-03-08T06:25:50.236Z,664.00
2023-03-08T06:26:50.244Z,672.00
2023-03-08T06:27:50.216Z,684.00
2023-03-08T06:28:50.194Z,700.00
2023-03-08T06:29:50.223Z,712.00
2023-03-08T06:30:51.253Z,716.00
2023-03-08T06:31:50.189Z,716.00
2023-03-08T06:32:50.180Z,712.00
2023-03-08T06:33:50.170Z,712.00
2023-03-08T06:34:50.200Z,716.00
2023-03-08T06:35:51.201Z,720.00
2023-03-08T06:36:50.160Z,728.00
2023-03-08T06:37:50.128Z,736.00
2023-03-08T06:38:50.163Z,764.00
2023-03-08T06:39:50.147Z,780.00
2023-03-08T06:40:50.086Z,800.00
2023-03-08T06:41:50.084Z,812.00
2023-03-08T06:42:50.140Z,840.00
2023-03-08T06:43:50.062Z,852.00
2023-03-08T06:44:50.071Z,864.00
2023-03-08T06:45:50.107Z,868.00
2023-03-08T06:46:50.043Z,876.00
2023-03-08T06:47:50.016Z,880.00
2023-03-08T06:48:50.006Z,880.00
2023-03-08T06:49:50.008Z,884.00
2023-03-08T06:50:49.989Z,900.00
2023-03-08T06:51:49.984Z,940.00
2023-03-08T06:52:49.975Z,992.00
2023-03-08T06:53:49.961Z,1060.00
2023-03-08T06:54:49.964Z,1132.00
2023-03-08T06:55:49.948Z,1184.00
2023-03-08T06:56:49.936Z,1208.00
2023-03-08T06:57:49.928Z,1216.00
2023-03-08T06:58:49.915Z,1228.00
2023-03-08T06:59:49.921Z,1252.00
2023-03-08T07:00:49.921Z,1280.00
2023-03-08T07:01:49.892Z,1320.00
2023-03-08T07:02:49.874Z,1372.00
2023-03-08T07:03:49.864Z,1436.00
2023-03-08T07:04:50.003Z,1504.00
2023-03-08T07:05:49.850Z,1548.00
2023-03-08T07:06:49.864Z,1572.00
2023-03-08T07:07:49.828Z,1568.00
2023-03-08T07:08:49.802Z,1560.00
2023-03-08T07:09:49.824Z,1540.00
2023-03-08T07:10:49.808Z,1512.00
2023-03-08T07:11:49.784Z,1488.00
2023-03-08T07:12:49.774Z,1472.00
2023-03-08T07:13:49.753Z,1464.00
2023-03-08T07:14:49.744Z,1468.00
2023-03-08T07:15:49.801Z,1476.00
2023-03-08T07:16:49.730Z,1476.00
2023-03-08T07:17:49.719Z,1464.00
2023-03-08T07:18:49.720Z,1460.00
2023-03-08T07:19:49.698Z,1452.00
2023-03-08T07:20:49.692Z,1448.00
2023-03-08T07:21:49.678Z,1456.00
2023-03-08T07:22:49.673Z,1500.00
2023-03-08T07:23:49.646Z,1544.00
2023-03-08T07:24:50.644Z,1592.00
2023-03-08T07:25:49.652Z,1632.00
2023-03-08T07:26:49.628Z,1664.00
2023-03-08T07:27:49.620Z,1704.00
2023-03-08T07:28:49.609Z,1752.00
2023-03-08T07:29:49.611Z,1816.00
2023-03-08T07:30:49.608Z,1876.00
2023-03-08T07:31:49.706Z,1912.00
2023-03-08T07:32:49.776Z,1928.00
2023-03-08T07:33:49.553Z,1932.00
2023-03-08T07:34:49.544Z,1936.00
2023-03-08T07:35:49.592Z,1936.00
2023-03-08T07:36:49.533Z,1940.00
2023-03-08T07:37:49.546Z,1952.00
2023-03-08T07:38:49.555Z,1996.00
2023-03-08T07:39:49.501Z,2072.00
2023-03-08T07:40:49.507Z,2180.00
2023-03-08T07:41:49.485Z,2264.00
2023-03-08T07:42:49.483Z,2312.00
2023-03-08T07:43:49.496Z,2360.00
2023-03-08T07:44:49.467Z,2384.00
2023-03-08T07:45:49.471Z,2400.00
2023-03-08T07:46:49.450Z,2376.00
2023-03-08T07:47:49.437Z,2356.00
2023-03-08T07:48:49.414Z,2220.00
2023-03-08T07:49:49.415Z,2268.00
2023-03-08T07:50:49.777Z,2360.00
2023-03-08T07:51:49.430Z,2468.00
2023-03-08T07:52:50.144Z,2552.00
2023-03-08T07:53:49.381Z,2584.00
2023-03-08T07:54:49.356Z,2540.00
2023-03-08T07:55:49.384Z,2464.00
2023-03-08T07:56:49.342Z,2460.00
2023-03-08T07:57:49.330Z,2448.00
2023-03-08T07:58:49.320Z,2384.00
2023-03-08T07:59:49.315Z,2308.00
2023-03-08T08:00:49.321Z,2248.00
2023-03-08T08:01:49.279Z,2244.00
2023-03-08T08:02:55.464Z,2288.00
2023-03-08T08:03:49.326Z,2356.00
2023-03-08T08:04:49.419Z,2440.00
2023-03-08T08:05:49.284Z,2496.00
2023-03-08T08:06:49.247Z,2536.00
2023-03-08T08:07:49.241Z,2500.00
2023-03-08T08:08:49.232Z,2496.00
2023-03-08T08:09:49.227Z,2428.00
2023-03-08T08:10:49.232Z,2348.00
2023-03-08T08:11:49.247Z,2336.00
2023-03-08T08:12:49.254Z,2324.00
2023-03-08T08:13:49.239Z,2256.00
2023-03-08T08:14:49.170Z,2176.00
2023-03-08T08:15:49.225Z,2136.00
2023-03-08T08:16:49.164Z,2204.00
2023-03-08T08:17:49.134Z,2252.00
2023-03-08T08:18:49.115Z,2268.00
2023-03-08T08:19:49.114Z,2292.00
2023-03-08T08:20:49.115Z,2320.00
2023-03-08T08:21:49.091Z,2332.00
2023-03-08T08:22:49.079Z,2316.00
2023-03-08T08:23:49.081Z,2336.00
2023-03-08T08:24:49.061Z,2380.00
2023-03-08T08:25:49.143Z,2428.00
2023-03-08T08:26:49.059Z,2516.00
2023-03-08T08:27:49.054Z,2636.00
2023-03-08T08:28:49.056Z,2768.00
2023-03-08T08:29:49.053Z,2948.00
2023-03-08T08:30:49.033Z,3212.00
2023-03-08T08:31:49.092Z,3424.00
2023-03-08T08:32:49.058Z,3604.00
2023-03-08T08:33:48.992Z,3728.00
2023-03-08T08:34:48.987Z,3768.00
2023-03-08T08:35:49.011Z,3716.00
2023-03-08T08:36:48.951Z,3732.00
2023-03-08T08:37:48.930Z,3692.00
2023-03-08T08:38:48.917Z,3612.00
2023-03-08T08:39:48.912Z,3516.00
2023-03-08T08:40:48.917Z,3504.00
2023-03-08T08:41:48.898Z,3584.00
2023-03-08T08:42:48.885Z,3660.00
2023-03-08T08:43:48.877Z,3744.00
2023-03-08T08:44:48.866Z,3800.00
2023-03-08T08:45:48.956Z,3836.00
2023-03-08T08:46:48.865Z,3868.00
2023-03-08T08:47:48.850Z,3876.00
2023-03-08T08:48:48.837Z,3868.00
2023-03-08T08:49:48.815Z,3884.00
2023-03-08T08:50:48.824Z,3844.00
2023-03-08T08:51:48.798Z,3904.00
2023-03-08T08:52:48.808Z,3992.00
2023-03-08T08:53:48.771Z,4056.00
2023-03-08T08:54:48.771Z,4140.00
2023-03-08T08:55:48.771Z,4204.00
2023-03-08T08:56:48.749Z,4288.00
2023-03-08T08:57:48.732Z,4340.00
2023-03-08T08:58:48.726Z,4364.00
2023-03-08T08:59:48.714Z,4392.00
2023-03-08T09:00:48.716Z,4368.00
2023-03-08T09:01:48.696Z,4332.00
2023-03-08T09:02:48.730Z,4328.00
2023-03-08T09:03:48.686Z,4292.00
2023-03-08T09:04:48.760Z,4268.00
2023-03-08T09:05:49.689Z,4292.00
2023-03-08T09:06:48.639Z,4300.00
2023-03-08T09:07:48.626Z,4204.00
2023-03-08T09:08:48.712Z,4084.00
2023-03-08T09:09:48.609Z,3980.00
2023-03-08T09:10:48.604Z,3728.00
2023-03-08T09:11:54.739Z,3504.00
2023-03-08T09:12:50.600Z,3356.00
2023-03-08T09:13:48.578Z,3324.00
2023-03-08T09:14:48.569Z,3324.00
2023-03-08T09:15:50.251Z,3336.00
2023-03-08T09:16:48.675Z,3300.00
2023-03-08T09:17:48.589Z,3252.00
2023-03-08T09:18:48.565Z,3168.00
2023-03-08T09:19:48.540Z,3096.00
2023-03-08T09:20:48.520Z,3004.00
2023-03-08T09:21:48.525Z,2992.00
2023-03-08T09:22:48.497Z,3000.00
2023-03-08T09:23:49.481Z,2996.00
2023-03-08T09:24:48.475Z,2968.00
2023-03-08T09:25:48.466Z,2948.00
2023-03-08T09:26:48.462Z,2928.00
2023-03-08T09:30:36.590Z,2976.00
2023-03-08T09:31:36.687Z,2976.00
2023-03-08T09:32:36.619Z,2928.00
2023-03-08T09:33:36.566Z,2848.00
2023-03-08T09:34:36.558Z,2808.00
2023-03-08T09:35:36.580Z,2744.00
2023-03-08T09:38:14.260Z,2564.00
2023-03-08T09:39:03.625Z,2532.00
2023-03-08T09:40:03.637Z,2496.00
2023-03-08T09:41:03.618Z,2516.00
2023-03-08T09:42:03.630Z,2584.00
2023-03-08T09:43:03.603Z,2676.00
2023-03-08T09:44:03.583Z,2752.00
2023-03-08T09:45:04.464Z,2840.00
2023-03-08T09:46:03.616Z,2956.00
2023-03-08T09:47:03.578Z,3032.00
2023-03-08T09:48:03.596Z,3056.00
2023-03-08T09:49:03.628Z,3068.00
2023-03-08T09:50:03.513Z,3048.00
2023-03-08T09:51:03.517Z,3016.00
2023-03-08T09:52:03.516Z,2988.00
2023-03-08T09:53:06.272Z,2960.00
2023-03-08T09:54:03.774Z,2964.00
2023-03-08T09:55:03.540Z,2964.00
2023-03-08T09:56:03.454Z,2976.00
2023-03-08T09:57:03.452Z,2896.00
2023-03-08T09:58:03.424Z,2760.00
2023-03-08T09:59:03.426Z,2620.00
2023-03-08T10:00:03.419Z,2504.00
2023-03-08T10:01:03.677Z,2448.00
2023-03-08T10:02:03.400Z,2504.00
2023-03-08T10:03:03.423Z,2564.00
2023-03-08T10:04:03.405Z,2660.00
2023-03-08T10:05:12.865Z,2756.00
2023-03-08T10:06:04.338Z,2800.00
2023-03-08T10:07:03.346Z,2872.00
2023-03-08T10:08:03.323Z,2908.00
2023-03-08T10:09:03.320Z,2964.00
2023-03-08T10:10:03.305Z,3040.00
2023-03-08T10:11:03.291Z,3156.00
2023-03-08T10:12:03.281Z,3196.00
2023-03-08T10:13:31.269Z,3184.00
2023-03-08T10:14:03.421Z,3232.00
2023-03-08T10:15:03.345Z,3352.00
2023-03-08T10:16:03.316Z,3520.00
2023-03-08T10:21:39.199Z,3868.00
2023-03-08T10:22:21.251Z,4048.00
2023-03-08T10:23:21.192Z,4204.00
2023-03-08T10:24:21.121Z,4364.00
2023-03-08T10:25:21.096Z,4504.00
2023-03-08T10:26:21.157Z,4692.00
2023-03-08T10:27:21.101Z,4812.00
2023-03-08T10:28:21.186Z,4896.00
2023-03-08T10:29:21.096Z,5020.00
2023-03-08T10:30:21.056Z,5024.00
2023-03-08T10:31:21.049Z,4936.00
2023-03-08T10:32:21.079Z,4792.00
2023-03-08T10:33:21.065Z,4892.00
2023-03-08T10:36:02.253Z,5372.00
2023-03-08T10:36:47.142Z,5500.00
2023-03-08T10:37:46.971Z,5480.00
2023-03-08T10:38:46.961Z,5340.00
2023-03-08T10:39:46.965Z,5592.00
2023-03-08T10:40:46.968Z,5812.00
2023-03-08T10:41:47.038Z,5792.00
2023-03-08T10:42:47.064Z,5580.00
2023-03-08T10:43:46.904Z,5232.00
2023-03-08T10:44:46.897Z,4860.00
2023-03-08T10:45:46.911Z,4716.00
2023-03-08T10:46:46.894Z,4656.00
2023-03-08T10:47:46.892Z,4576.00
2023-03-08T10:48:46.864Z,4520.00
2023-03-08T10:49:46.852Z,4488.00
2023-03-08T10:50:46.827Z,4520.00
2023-03-08T10:51:46.817Z,4532.00
2023-03-08T10:52:46.852Z,4584.00
2023-03-08T10:53:46.796Z,4604.00
2023-03-08T10:54:46.789Z,4576.00
2023-03-08T10:55:46.773Z,4584.00
2023-03-08T10:56:46.766Z,4752.00
2023-03-08T10:57:46.763Z,4900.00
2023-03-08T10:58:46.742Z,4760.00
2023-03-08T10:59:46.727Z,4444.00
2023-03-08T11:00:46.720Z,4068.00
2023-03-08T11:01:46.705Z,3848.00
2023-03-08T11:02:46.710Z,4012.00
2023-03-08T11:03:46.695Z,4428.00
2023-03-08T11:04:46.763Z,4864.00
2023-03-08T11:05:46.663Z,5264.00
2023-03-08T11:06:46.657Z,5484.00
2023-03-08T11:07:46.651Z,5596.00
2023-03-08T11:08:46.644Z,5720.00
2023-03-08T11:09:46.620Z,5792.00
2023-03-08T11:10:46.787Z,5908.00
2023-03-08T11:11:46.599Z,6104.00
2023-03-08T11:12:46.637Z,6280.00
2023-03-08T11:13:46.585Z,6316.00
2023-03-08T11:14:46.599Z,6340.00
2023-03-08T11:15:46.581Z,6436.00
2023-03-08T11:16:46.562Z,6660.00
2023-03-08T11:17:46.583Z,6644.00
2023-03-08T11:18:46.559Z,6676.00
2023-03-08T11:19:46.533Z,6792.00
2023-03-08T11:20:46.511Z,7024.00
2023-03-08T11:21:46.500Z,7400.00
2023-03-08T11:22:46.509Z,7500.00
2023-03-08T11:23:46.477Z,7312.00
2023-03-08T11:24:46.479Z,6984.00
2023-03-08T11:25:46.461Z,6716.00
2023-03-08T11:26:46.472Z,6392.00
2023-03-08T11:27:46.463Z,6304.00
2023-03-08T11:28:46.454Z,6384.00
2023-03-08T11:29:46.424Z,6316.00
2023-03-08T11:30:46.516Z,6384.00
2023-03-08T11:31:46.398Z,6396.00
2023-03-08T11:32:46.623Z,6152.00
2023-03-08T11:33:46.510Z,5896.00
2023-03-08T11:34:46.381Z,5784.00
2023-03-08T11:35:46.370Z,5932.00
2023-03-08T11:36:46.351Z,6072.00
2023-03-08T11:37:46.340Z,6436.00
2023-03-08T11:38:46.326Z,6648.00
2023-03-08T11:39:46.342Z,6484.00
2023-03-08T11:40:46.307Z,6188.00
2023-03-08T11:41:46.290Z,6052.00
2023-03-08T11:42:46.296Z,6176.00
2023-03-08T11:43:46.271Z,6272.00
2023-03-08T11:44:46.263Z,6136.00
2023-03-08T11:45:46.246Z,6024.00
2023-03-08T11:46:46.268Z,6004.00
2023-03-08T11:47:46.390Z,5956.00
2023-03-08T11:48:46.266Z,6092.00
2023-03-08T11:49:46.220Z,6120.00
2023-03-08T11:50:46.201Z,5876.00
2023-03-08T11:51:46.185Z,5608.00
2023-03-08T11:52:46.182Z,5196.00
2023-03-08T11:53:46.164Z,4704.00
2023-03-08T11:54:46.154Z,4424.00
2023-03-08T11:55:46.143Z,4192.00
2023-03-08T11:56:46.168Z,3840.00
2023-03-08T11:57:46.127Z,3520.00
2023-03-08T11:58:48.196Z,3384.00
2023-03-08T11:59:46.105Z,3456.00
2023-03-08T12:00:46.087Z,3220.00
2023-03-08T12:01:46.082Z,2736.00
2023-03-08T12:02:46.079Z,2528.00
2023-03-08T12:03:46.400Z,2456.00
2023-03-08T12:04:46.240Z,2408.00
2023-03-08T12:05:46.176Z,2436.00
2023-03-08T12:06:46.185Z,2504.00
2023-03-08T12:07:46.057Z,2528.00
2023-03-08T12:08:57.735Z,2528.00
2023-03-08T12:09:46.201Z,2568.00
2023-03-08T12:11:12.066Z,2576.00
2023-03-08T12:11:46.091Z,2536.00
2023-03-08T12:12:45.971Z,2412.00
2023-03-08T12:13:45.973Z,2312.00
2023-03-08T12:14:45.945Z,2204.00
2023-03-08T12:15:45.942Z,2236.00
2023-03-08T12:16:46.080Z,2356.00
2023-03-08T12:17:45.932Z,2468.00
2023-03-08T12:18:45.989Z,2492.00
2023-03-08T12:20:06.914Z,2456.00
2023-03-08T12:20:45.892Z,2332.00
2023-03-08T12:21:45.933Z,2196.00
2023-03-08T12:23:12.139Z,2204.00
2023-03-08T12:23:45.880Z,2436.00
2023-03-08T12:24:45.839Z,2764.00
2023-03-08T12:25:45.844Z,3272.00
2023-03-08T12:26:45.869Z,3848.00
2023-03-08T12:27:45.901Z,3856.00
2023-03-08T12:28:45.865Z,3640.00
2023-03-08T12:29:45.844Z,3552.00
2023-03-08T12:30:45.788Z,3564.00
2023-03-08T12:31:45.832Z,3720.00
2023-03-08T12:32:45.910Z,3832.00
2023-03-08T12:33:45.808Z,3788.00
2023-03-08T12:34:45.746Z,3780.00
2023-03-08T12:35:45.820Z,3944.00
2023-03-08T12:36:45.993Z,4136.00
2023-03-08T12:37:45.795Z,4016.00
2023-03-08T12:38:45.832Z,3884.00
2023-03-08T12:39:45.795Z,3700.00
2023-03-08T12:40:45.783Z,3708.00
2023-03-08T12:43:11.659Z,4216.00
2023-03-08T12:44:11.695Z,4168.00
2023-03-08T12:45:11.644Z,3792.00
2023-03-08T12:46:11.683Z,3664.00
2023-03-08T12:47:11.649Z,3740.00
2023-03-08T12:48:13.221Z,3724.00
2023-03-08T12:49:36.022Z,3736.00
2023-03-08T12:50:11.670Z,3832.00
2023-03-08T12:51:11.668Z,3932.00
2023-03-08T12:52:11.577Z,4068.00